Time;durP1;ratioP1;P1;durP2;ratioP2;P2;SDS_P1;SDS_P2;PMS_P1;PMS_P2;Temp;Humidity;BMP_temperature;BMP_pressure;BME280_temperature;BME280_humidity;BME280_pressure;Samples;Min_cycle;Max_cycle;Signal;HPM_P1;HPM_P2
2022/06/25 00:00:55;;;;;;;5.13;3.30;;;;;;;17.14;100.00;99386.41;12201907;19;20011;-80
2022/06/25 00:09:17;;;;;;;10.82;4.20;;;;;;;17.09;100.00;99395.66;12186718;19;20015;-81
2022/06/25 00:13:20;;;;;;;6.60;3.55;;;;;;;17.01;100.00;99401.91;12214511;19;20011;-81
2022/06/25 00:17:21;;;;;;;4.65;3.45;;;;;;;17.01;100.00;99401.91;12187533;19;20006;-83
2022/06/25 00:21:23;;;;;;;7.88;4.22;;;;;;;16.98;100.00;99397.78;12213487;19;20018;-80
2022/06/25 00:25:25;;;;;;;7.05;3.85;;;;;;;16.92;100.00;99398.16;12214523;19;20050;-81
2022/06/25 00:29:26;;;;;;;7.70;4.75;;;;;;;16.92;100.00;99406.50;12191551;19;20404;-79
2022/06/25 00:33:28;;;;;;;6.75;3.60;;;;;;;16.87;100.00;99403.81;12213810;19;20535;-79
2022/06/25 00:37:30;;;;;;;6.85;4.20;;;;;;;16.83;100.00;99407.19;12202499;19;20015;-81
2022/06/25 00:41:32;;;;;;;6.30;3.75;;;;;;;16.82;100.00;99415.84;12183131;19;20010;-80
2022/06/25 00:45:34;;;;;;;5.97;4.03;;;;;;;16.83;100.00;99409.97;12211792;19;20032;-80
2022/06/25 00:49:36;;;;;;;8.55;4.75;;;;;;;16.80;100.00;99424.47;12198941;19;20010;-81
2022/06/25 00:53:41;;;;;;;8.80;4.80;;;;;;;16.78;100.00;99423.97;12182826;19;20015;-78
2022/06/25 00:57:43;;;;;;;10.15;4.10;;;;;;;16.78;100.00;99409.25;12199996;19;20010;-79
2022/06/25 01:01:45;;;;;;;6.05;4.15;;;;;;;16.79;100.00;99420.06;12211511;19;20010;-79
2022/06/25 01:05:47;;;;;;;8.10;3.70;;;;;;;16.81;100.00;99426.16;12182187;19;20018;-80
2022/06/25 01:09:50;;;;;;;9.05;4.78;;;;;;;16.82;100.00;99426.97;12205614;19;20496;-80
2022/06/25 01:13:53;;;;;;;10.88;4.43;;;;;;;16.83;100.00;99429.44;12217598;19;20007;-82
2022/06/25 01:17:56;;;;;;;6.60;4.78;;;;;;;16.82;100.00;99427.78;12222767;19;20021;-82
2022/06/25 01:22:03;;;;;;;7.43;4.82;;;;;;;16.80;100.00;99441.16;12207481;19;20007;-80
2022/06/25 01:26:05;;;;;;;8.60;4.20;;;;;;;16.77;100.00;99436.22;12194289;19;20007;-80
2022/06/25 01:30:11;;;;;;;8.63;4.63;;;;;;;16.76;100.00;99439.31;12209414;19;20014;-80
2022/06/25 01:34:13;;;;;;;7.43;5.00;;;;;;;16.74;100.00;99441.53;12207561;19;20138;-85
2022/06/25 01:38:24;;;;;;;10.45;4.57;;;;;;;16.71;100.00;99442.94;12177888;19;20011;-84
2022/06/25 01:47:22;;;;;;;8.15;4.93;;;;;;;16.69;100.00;99442.44;12199520;19;20026;-85
2022/06/25 01:51:36;;;;;;;8.07;4.68;;;;;;;16.64;100.00;99446.09;12202831;19;20032;-85
2022/06/25 01:55:38;;;;;;;7.72;4.47;;;;;;;16.63;100.00;99440.84;12192908;19;20010;-85
2022/06/25 01:59:40;;;;;;;7.97;4.57;;;;;;;16.70;100.00;99446.88;12179006;19;20006;-85
2022/06/25 02:03:42;;;;;;;8.85;5.10;;;;;;;16.74;100.00;99442.34;12199379;19;20006;-85
2022/06/25 02:07:45;;;;;;;7.53;5.15;;;;;;;16.74;100.00;99442.34;12193699;19;20007;-85
2022/06/25 02:11:51;;;;;;;6.70;4.63;;;;;;;16.75;100.00;99443.19;12174311;19;20007;-85
2022/06/25 02:15:53;;;;;;;7.47;5.20;;;;;;;16.76;100.00;99445.69;12220101;19;20011;-85
2022/06/25 02:19:55;;;;;;;;;;;;;;;16.76;100.00;99436.53;12234655;19;20019;-86
2022/06/25 02:23:57;;;;;;;6.13;4.63;;;;;;;16.77;100.00;99446.53;12189973;19;19911;-85
2022/06/25 02:27:59;;;;;;;10.48;5.03;;;;;;;16.77;100.00;99447.34;12203900;19;20011;-86
2022/06/25 02:32:00;;;;;;;8.80;5.43;;;;;;;16.75;100.00;99451.53;12202139;19;20014;-85
2022/06/25 02:36:03;;;;;;;10.47;5.67;;;;;;;16.73;100.00;99457.38;12179003;19;20080;-86
2022/06/25 02:40:05;;;;;;;11.20;5.43;;;;;;;16.72;100.00;99457.72;12199903;19;20014;-85
2022/06/25 02:44:10;;;;;;;7.95;5.40;;;;;;;16.70;100.00;99458.00;12175995;19;20408;-85
2022/06/25 02:48:19;;;;;;;12.10;5.95;;;;;;;16.70;100.00;99449.66;12198188;19;20007;-84
2022/06/25 02:52:20;;;;;;;8.77;5.80;;;;;;;16.68;100.00;99456.63;12218606;19;20054;-84
2022/06/25 03:00:49;;;;;;;10.55;6.18;;;;;;;16.66;100.00;99461.66;12229126;19;20030;-84
2022/06/25 03:04:51;;;;;;;11.17;6.27;;;;;;;16.63;100.00;99466.72;12212802;19;20017;-83
2022/06/25 03:08:52;;;;;;;8.07;5.88;;;;;;;16.63;100.00;99465.88;12191522;19;20400;-82
2022/06/25 03:12:56;;;;;;;10.10;6.20;;;;;;;16.60;100.00;99472.06;12204554;19;20006;-82
2022/06/25 03:17:01;;;;;;;9.98;6.28;;;;;;;16.59;100.00;99476.75;12204758;19;20022;-82
2022/06/25 03:21:21;;;;;;;8.68;5.90;;;;;;;16.58;100.00;99466.78;12196830;19;20007;-83
2022/06/25 03:25:31;;;;;;;13.00;6.50;;;;;;;16.59;100.00;99473.97;12216113;19;20011;-83
2022/06/25 03:29:37;;;;;;;12.77;6.25;;;;;;;16.59;100.00;99478.72;12179580;19;20022;-82
2022/06/25 03:33:39;;;;;;;11.40;5.72;;;;;;;16.59;100.00;99481.50;12212767;19;20018;-83
2022/06/25 03:37:49;;;;;;;16.13;5.90;;;;;;;16.60;100.00;99488.75;12202682;19;20015;-82
2022/06/25 03:41:51;;;;;;;9.80;6.15;;;;;;;16.59;100.00;99493.44;12188861;19;20014;-81
2022/06/25 03:46:13;;;;;;;11.07;5.75;;;;;;;16.64;100.00;99495.34;12211375;19;20027;-83
2022/06/25 03:50:17;;;;;;;9.38;5.82;;;;;;;16.68;100.00;99488.06;12186753;19;20014;-83
2022/06/25 03:54:20;;;;;;;10.75;6.05;;;;;;;16.72;100.00;99491.09;12197583;19;20007;-81
2022/06/25 03:58:22;;;;;;;10.23;6.07;;;;;;;16.70;100.00;99502.50;12204621;19;20086;-82
2022/06/25 04:02:24;;;;;;;9.77;6.57;;;;;;;16.74;100.00;99500.78;12176039;19;20094;-83
2022/06/25 04:06:45;;;;;;;9.45;6.28;;;;;;;16.75;100.00;99513.56;12204635;19;20013;-84
2022/06/25 04:10:47;;;;;;;19.38;6.35;;;;;;;16.78;100.00;99514.97;12200084;19;20006;-83
2022/06/25 04:14:50;;;;;;;10.90;6.30;;;;;;;16.80;100.00;99513.53;12181170;19;20006;-83
2022/06/25 04:18:52;;;;;;;10.15;6.05;;;;;;;16.85;100.00;99512.63;12201542;19;20006;-82
2022/06/25 04:22:58;;;;;;;10.10;6.05;;;;;;;16.88;100.00;99519.56;12201144;19;20027;-82
2022/06/25 04:26:59;;;;;;;10.68;6.07;;;;;;;16.89;100.00;99519.25;12190701;19;20027;-84
2022/06/25 04:31:01;;;;;;;10.57;6.38;;;;;;;16.95;100.00;99529.19;12203005;19;20025;-83
2022/06/25 04:35:16;;;;;;;9.65;5.97;;;;;;;17.05;100.00;99520.72;12189871;19;20010;-84
2022/06/25 04:39:20;;;;;;;9.02;6.15;;;;;;;17.11;100.00;99518.69;12180236;19;20022;-83
2022/06/25 04:43:23;;;;;;;11.43;6.45;;;;;;;17.14;100.00;99523.66;12196637;19;21382;-83
2022/06/25 04:47:26;;;;;;;11.20;6.07;;;;;;;17.16;100.00;99524.16;12174460;19;20007;-84
2022/06/25 04:51:48;;;;;;;12.98;6.13;;;;;;;17.18;100.00;99519.13;12209628;19;20741;-83
2022/06/25 04:55:50;;;;;;;11.88;6.05;;;;;;;17.19;100.00;99523.59;12201765;19;20021;-84
2022/06/25 04:59:52;;;;;;;13.85;6.05;;;;;;;17.24;100.00;99531.84;12180671;19;20050;-84
2022/06/25 05:04:04;;;;;;;10.32;5.97;;;;;;;17.30;100.00;99538.16;12194788;19;20014;-82
2022/06/25 05:08:06;;;;;;;10.60;5.53;;;;;;;17.37;100.00;99535.00;12198584;19;20003;-83
2022/06/25 05:12:08;;;;;;;9.68;5.50;;;;;;;17.44;100.00;99543.81;12182263;19;20070;-83
2022/06/25 05:16:13;;;;;;;8.23;5.90;;;;;;;17.50;100.00;99551.78;12196019;19;20360;-82
2022/06/25 05:20:15;;;;;;;11.77;5.83;;;;;;;17.53;100.00;99555.94;12180464;19;20014;-83
2022/06/25 05:24:16;;;;;;;6.45;5.10;;;;;;;17.65;100.00;99556.28;12205043;19;20262;-83
2022/06/25 05:28:18;;;;;;;9.60;5.03;;;;;;;17.79;100.00;99561.97;12202274;19;20029;-83
2022/06/25 05:32:20;;;;;;;7.97;4.70;;;;;;;18.05;100.00;99559.56;12176324;19;20345;-83
2022/06/25 05:36:23;;;;;;;6.47;4.55;;;;;;;18.31;100.00;99567.47;12226929;19;20275;-85
2022/06/25 05:40:26;;;;;;;7.05;4.47;;;;;;;18.53;100.00;99558.41;12223508;19;20018;-85
2022/06/25 05:44:29;;;;;;;8.70;4.72;;;;;;;18.67;100.00;99567.59;12207941;19;20007;-85
2022/06/25 05:48:31;;;;;;;6.13;4.55;;;;;;;18.77;100.00;99574.97;12194916;19;20075;-84
2022/06/25 05:52:33;;;;;;;8.20;4.20;;;;;;;19.06;100.00;99577.44;12208457;19;20090;-85
2022/06/25 05:56:38;;;;;;;7.45;3.95;;;;;;;19.27;100.00;99577.84;12179977;19;20033;-84
2022/06/25 06:00:39;;;;;;;4.55;3.40;;;;;;;19.52;100.00;99584.81;12199003;19;20003;-83
2022/06/25 06:04:59;;;;;;;5.30;3.65;;;;;;;19.81;100.00;99581.66;12201593;19;20046;-84
2022/06/25 06:09:01;;;;;;;5.20;3.92;;;;;;;20.14;100.00;99587.81;12175961;19;20010;-83
2022/06/25 06:13:03;;;;;;;5.23;3.77;;;;;;;20.42;100.00;99590.44;12200221;19;20006;-83
2022/06/25 06:17:05;;;;;;;5.95;3.50;;;;;;;20.72;100.00;99594.41;12202946;19;20018;-83
2022/06/25 06:21:07;;;;;;;5.10;3.45;;;;;;;20.65;100.00;99600.47;12174702;19;20015;-83
2022/06/25 06:25:15;;;;;;;8.50;3.47;;;;;;;20.57;100.00;99611.63;12200137;19;20058;-83
2022/06/25 06:29:20;;;;;;;5.03;2.97;;;;;;;20.60;100.00;99617.41;12186038;19;20003;-83
2022/06/25 06:33:22;;;;;;;5.40;2.65;;;;;;;20.58;100.00;99616.06;12194358;19;20078;-83
2022/06/25 06:37:23;;;;;;;6.22;2.72;;;;;;;20.71;100.00;99613.19;12202578;19;20010;-83
2022/06/25 06:41:25;;;;;;;4.07;3.05;;;;;;;20.73;100.00;99617.63;12169203;19;20010;-84
2022/06/25 06:45:27;;;;;;;8.02;3.78;;;;;;;20.82;100.00;99624.94;12207045;19;20003;-84
2022/06/25 06:49:29;;;;;;;5.85;3.33;;;;;;;20.99;100.00;99621.34;12207329;19;20002;-84
2022/06/25 06:53:32;;;;;;;6.97;4.10;;;;;;;21.40;100.00;99623.00;12186479;19;20019;-84
2022/06/25 06:57:34;;;;;;;6.25;4.07;;;;;;;21.57;100.00;99605.38;12204852;19;20006;-83
2022/06/25 07:01:43;;;;;;;7.63;3.65;;;;;;;21.81;100.00;99607.72;12208306;19;20015;-83
2022/06/25 07:05:45;;;;;;;5.07;3.28;;;;;;;22.05;97.44;99607.19;12191503;19;20007;-83
2022/06/25 07:09:55;;;;;;;8.27;3.65;;;;;;;21.84;97.49;99598.63;12202727;19;20011;-83
2022/06/25 07:14:00;;;;;;;8.52;4.18;;;;;;;21.75;96.97;99593.03;12205652;19;20011;-83
2022/06/25 07:18:01;;;;;;;5.43;3.50;;;;;;;21.92;97.63;99597.81;12179900;19;20516;-83
2022/06/25 07:22:03;;;;;;;6.70;3.77;;;;;;;22.14;96.81;99599.59;12204575;19;20019;-82
2022/06/25 07:26:05;;;;;;;6.53;3.30;;;;;;;22.39;92.21;99599.91;12199708;19;20033;-82
2022/06/25 07:30:07;;;;;;;5.93;3.60;;;;;;;22.74;91.25;99595.00;12190528;19;20019;-82
2022/06/25 07:34:09;;;;;;;5.95;2.90;;;;;;;23.09;87.66;99606.94;12198553;19;20011;-83
2022/06/25 07:38:10;;;;;;;6.30;3.05;;;;;;;23.40;86.39;99609.41;12199797;19;20014;-82
2022/06/25 07:42:12;;;;;;;6.32;3.55;;;;;;;23.35;86.49;99594.72;12197473;19;20014;-82
2022/06/25 07:46:14;;;;;;;3.67;2.90;;;;;;;23.45;87.29;99604.75;12220710;19;20010;-82
2022/06/25 07:54:38;;;;;;;5.57;3.28;;;;;;;24.52;77.13;99600.38;12196585;19;20011;-84
2022/06/25 07:58:40;;;;;;;5.18;3.15;;;;;;;24.52;75.12;99606.84;12204674;19;20523;-83
2022/06/25 08:02:42;;;;;;;7.68;3.22;;;;;;;24.12;75.42;99598.09;12185906;19;20015;-84
2022/06/25 08:06:46;;;;;;;4.87;2.83;;;;;;;23.98;76.59;99595.59;12211325;19;20110;-84
2022/06/25 08:10:48;;;;;;;3.47;2.50;;;;;;;24.00;76.48;99584.78;12210311;19;20010;-86
2022/06/25 08:15:40;;;;;;;4.38;2.97;;;;;;;23.98;75.51;99589.16;12182386;19;20010;-85
2022/06/25 08:19:43;;;;;;;5.15;2.95;;;;;;;24.03;75.13;99583.28;12143208;19;20014;-82
2022/06/25 08:23:47;;;;;;;6.55;3.53;;;;;;;24.15;75.50;99585.31;12208570;19;20082;-85
2022/06/25 08:28:14;;;;;;;6.93;3.15;;;;;;;24.09;75.20;99591.19;12216711;19;20013;-86
2022/06/25 08:32:27;;;;;;;6.95;2.63;;;;;;;24.21;75.45;99586.75;12217176;19;20028;-85
2022/06/25 08:36:48;;;;;;;6.10;2.70;;;;;;;24.45;74.34;99578.44;12165201;19;20010;-86
2022/06/25 08:51:17;;;;;;;4.82;2.80;;;;;;;24.72;70.48;99581.78;12220726;19;20019;-87
2022/06/25 09:01:14;;;;;;;5.18;2.72;;;;;;;25.59;66.17;99567.28;12257733;19;19997;-85
2022/06/25 09:10:54;;;;;;;3.45;2.80;;;;;;;26.06;62.76;99561.03;12210515;19;20096;-86
2022/06/25 09:21:08;;;;;;;5.22;3.03;;;;;;;26.27;59.60;99549.50;12192615;19;19951;-85
2022/06/25 09:25:37;;;;;;;7.05;2.78;;;;;;;26.61;60.54;99547.19;12243370;19;20005;-85
2022/06/25 09:29:54;;;;;;;6.10;2.65;;;;;;;26.42;57.92;99561.19;12240787;19;20025;-86
2022/06/25 09:34:46;;;;;;;5.97;2.85;;;;;;;26.20;58.28;99551.31;12210376;19;20019;-87
2022/06/25 09:38:50;;;;;;;7.15;3.15;;;;;;;26.51;57.65;99550.59;12219593;19;20021;-84
2022/06/25 09:43:51;;;;;;;6.53;2.60;;;;;;;26.64;55.26;99542.81;12219821;19;20035;-85
2022/06/25 09:47:58;;;;;;;4.35;2.03;;;;;;;27.08;53.65;99546.34;12216366;19;20010;-85
2022/06/25 09:52:01;;;;;;;7.13;2.70;;;;;;;27.49;52.55;99546.94;12206893;19;20101;-85
2022/06/25 09:56:03;;;;;;;3.70;2.45;;;;;;;27.54;54.67;99548.63;12205309;19;20010;-84
2022/06/25 10:00:06;;;;;;;4.93;2.80;;;;;;;27.64;52.72;99560.19;12187219;19;20303;-85
2022/06/25 10:04:11;;;;;;;7.32;2.95;;;;;;;27.04;53.05;99559.59;12204268;19;20011;-84
2022/06/25 10:08:14;;;;;;;;;;;;;;;27.10;53.05;99558.13;12212761;19;20011;-84
2022/06/25 10:12:16;;;;;;;2.95;1.90;;;;;;;27.33;53.37;99552.63;12188256;19;19943;-84
2022/06/25 10:16:23;;;;;;;3.45;2.15;;;;;;;27.90;51.72;99541.75;12211184;19;20010;-83
2022/06/25 10:20:53;;;;;;;3.33;1.88;;;;;;;28.51;50.31;99535.28;12195407;19;20031;-84
2022/06/25 10:24:57;;;;;;;5.10;2.30;;;;;;;28.75;47.82;99538.94;12218074;19;20066;-82
2022/06/25 10:29:21;;;;;;;4.65;2.30;;;;;;;28.85;47.02;99538.28;12227059;19;20372;-81
2022/06/25 10:33:29;;;;;;;4.82;2.10;;;;;;;28.27;46.60;99524.28;12189952;19;20002;-80
2022/06/25 10:37:58;;;;;;;5.93;2.20;;;;;;;27.64;48.67;99520.56;12204239;19;20019;-80
2022/06/25 10:46:36;;;;;;;4.47;2.15;;;;;;;27.64;49.13;99514.91;12202207;19;20007;-81
2022/06/25 10:50:38;;;;;;;5.88;2.25;;;;;;;27.84;48.40;99506.44;12188626;19;20013;-80
2022/06/25 10:54:40;;;;;;;4.43;2.00;;;;;;;27.83;47.86;99499.16;12202301;19;20010;-81
2022/06/25 10:58:43;;;;;;;6.27;2.27;;;;;;;27.96;46.66;99506.28;12206008;19;20006;-80
2022/06/25 11:02:53;;;;;;;5.65;2.55;;;;;;;27.75;48.07;99497.31;12178649;19;20271;-81
2022/06/25 11:07:22;;;;;;;5.32;1.90;;;;;;;28.18;47.73;99482.84;12209260;19;20018;-82
2022/06/25 11:11:33;;;;;;;3.80;2.13;;;;;;;28.71;44.73;99484.19;12204727;19;20058;-84
2022/06/25 11:15:39;;;;;;;5.55;1.70;;;;;;;28.91;44.44;99479.22;12191463;19;20007;-82
2022/06/25 11:19:42;;;;;;;5.00;2.20;;;;;;;28.37;44.79;99479.13;12217823;19;20047;-81
2022/06/25 11:23:44;;;;;;;5.38;2.47;;;;;;;28.76;44.53;99478.19;12190271;19;20015;-80
2022/06/25 11:32:08;;;;;;;6.50;2.38;;;;;;;29.60;42.06;99471.31;12219867;19;20010;-80
2022/06/25 11:36:11;;;;;;;2.80;1.98;;;;;;;30.01;41.11;99468.56;12187351;19;20119;-81
2022/06/25 11:40:16;;;;;;;3.72;2.20;;;;;;;30.33;39.96;99468.91;12206814;19;20007;-81
2022/06/25 11:44:19;;;;;;;3.65;1.95;;;;;;;30.57;40.20;99455.31;12217834;19;20818;-80
2022/06/25 11:48:28;;;;;;;4.57;2.30;;;;;;;30.75;39.55;99453.41;12196524;19;20006;-80
2022/06/25 11:52:30;;;;;;;2.33;1.85;;;;;;;31.06;38.36;99451.25;12213079;19;20624;-80
2022/06/25 11:56:32;;;;;;;8.75;2.30;;;;;;;31.12;37.40;99451.69;12188889;19;20020;-81
2022/06/25 12:00:33;;;;;;;2.10;1.90;;;;;;;29.98;38.00;99446.59;12207480;19;20022;-80
2022/06/25 12:04:47;;;;;;;4.53;1.95;;;;;;;30.01;39.09;99451.50;12200454;19;20025;-80
2022/06/25 12:08:50;;;;;;;4.22;2.42;;;;;;;30.63;38.47;99436.69;12190705;19;20126;-80
2022/06/25 12:12:52;;;;;;;28.88;4.20;;;;;;;30.90;38.16;99443.00;12209136;19;20010;-80
2022/06/25 12:16:54;;;;;;;4.20;2.20;;;;;;;30.85;38.34;99444.19;12202988;19;20652;-80
2022/06/25 12:20:56;;;;;;;;;;;;;;;31.72;36.68;99442.63;12185919;19;20547;-81
2022/06/25 12:25:02;;;;;;;4.78;2.28;;;;;;;33.00;34.90;99433.41;12204314;19;19915;-79
2022/06/25 12:29:10;;;;;;;3.67;1.85;;;;;;;32.85;33.35;99431.78;12205747;19;20015;-79
2022/06/25 12:33:14;;;;;;;3.75;1.92;;;;;;;31.90;34.57;99431.31;12222329;19;20002;-80
2022/06/25 12:37:29;;;;;;;6.05;2.13;;;;;;;31.06;36.29;99429.28;12207936;19;20014;-81
2022/06/25 12:41:49;;;;;;;3.05;1.90;;;;;;;30.32;37.23;99424.66;12202376;19;20649;-79
2022/06/25 12:45:53;;;;;;;3.92;1.70;;;;;;;29.70;37.97;99427.25;12189115;19;20038;-79
2022/06/25 12:49:57;;;;;;;14.68;3.03;;;;;;;29.41;38.82;99420.38;12215624;19;20023;-79
2022/06/25 12:53:58;;;;;;;5.10;1.90;;;;;;;29.13;39.23;99418.00;12193881;19;20468;-79
2022/06/25 12:58:05;;;;;;;3.67;1.90;;;;;;;28.62;40.57;99422.91;12210890;19;20015;-79
2022/06/25 13:02:06;;;;;;;5.13;2.00;;;;;;;28.22;41.47;99425.44;12206971;19;20090;-80
2022/06/25 13:06:13;;;;;;;7.68;2.22;;;;;;;28.09;42.20;99422.78;12189557;19;20357;-81
2022/06/25 13:10:15;;;;;;;4.78;2.10;;;;;;;28.02;41.61;99417.00;12208166;19;20010;-79
2022/06/25 13:14:17;;;;;;;2.60;1.88;;;;;;;28.24;41.64;99408.88;12204809;19;20010;-79
2022/06/25 13:18:18;;;;;;;3.80;2.00;;;;;;;29.17;39.96;99407.50;12193671;19;20037;-79
2022/06/25 13:22:21;;;;;;;3.10;1.55;;;;;;;31.50;38.45;99401.84;12200960;19;20370;-80
2022/06/25 13:26:23;;;;;;;2.17;1.50;;;;;;;34.12;33.82;99402.31;12207701;19;20375;-80
2022/06/25 13:30:24;;;;;;;3.30;1.92;;;;;;;35.93;30.34;99398.75;12189173;19;20023;-79
2022/06/25 13:34:50;;;;;;;2.53;2.03;;;;;;;37.36;27.85;99399.16;12196895;19;20010;-81
2022/06/25 13:38:53;;;;;;;3.08;1.75;;;;;;;38.34;27.05;99392.00;12174434;19;20024;-80
2022/06/25 13:42:55;;;;;;;2.20;1.52;;;;;;;39.40;25.24;99384.66;12199439;19;20062;-80
2022/06/25 13:46:57;;;;;;;1.92;1.60;;;;;;;38.70;24.50;99387.00;12191161;19;20349;-80
2022/06/25 13:50:58;;;;;;;2.30;1.50;;;;;;;39.22;24.99;99384.34;12183342;19;20546;-82
2022/06/25 13:55:00;;;;;;;5.32;1.90;;;;;;;40.36;24.09;99377.13;12197144;19;20066;-82
2022/06/25 13:59:02;;;;;;;1.85;1.50;;;;;;;41.47;22.26;99379.78;12196940;19;20014;-82
2022/06/25 14:03:04;;;;;;;3.85;1.60;;;;;;;41.34;21.30;99367.44;12185887;19;20014;-82
2022/06/25 14:07:05;;;;;;;2.65;1.20;;;;;;;41.78;21.47;99359.53;12212833;19;20010;-82
2022/06/25 14:11:11;;;;;;;2.20;1.20;;;;;;;41.32;21.36;99358.44;12197609;19;20014;-80
2022/06/25 14:15:12;;;;;;;2.35;1.25;;;;;;;41.49;21.14;99342.50;12179884;19;20010;-82
2022/06/25 14:19:14;;;;;;;1.55;1.20;;;;;;;42.09;20.46;99345.06;12203178;19;20017;-81
2022/06/25 14:23:15;;;;;;;1.30;1.00;;;;;;;43.12;19.39;99332.31;12204116;19;20468;-81
2022/06/25 14:27:17;;;;;;;2.50;1.20;;;;;;;44.02;18.21;99323.06;12187143;19;20007;-82
2022/06/25 14:31:19;;;;;;;2.00;1.10;;;;;;;44.92;17.21;99317.16;12205580;19;20051;-82
2022/06/25 14:35:27;;;;;;;2.40;1.00;;;;;;;44.70;16.67;99317.47;12197875;19;20486;-82
2022/06/25 14:43:52;;;;;;;1.30;1.05;;;;;;;45.22;16.24;99320.91;12207191;19;20003;-82
2022/06/25 14:47:53;;;;;;;1.95;1.20;;;;;;;45.12;16.09;99313.56;12190176;19;20430;-82
2022/06/25 14:51:55;;;;;;;1.17;1.00;;;;;;;45.34;15.53;99316.09;12228703;19;20006;-82
2022/06/25 14:55:57;;;;;;;2.17;1.10;;;;;;;45.14;15.89;99310.97;12228246;19;20014;-81
2022/06/25 14:59:58;;;;;;;1.27;1.08;;;;;;;44.67;16.15;99309.75;12201844;19;20003;-82
2022/06/25 15:04:00;;;;;;;1.30;1.17;;;;;;;43.26;17.08;99314.28;12214889;19;20010;-81
2022/06/25 15:08:07;;;;;;;1.42;0.80;;;;;;;41.12;18.09;99307.56;12211258;19;20011;-85
2022/06/25 15:12:09;;;;;;;2.35;1.00;;;;;;;38.69;20.15;99309.69;12190213;19;20140;-81
2022/06/25 15:16:10;;;;;;;2.75;1.20;;;;;;;37.80;20.88;99290.56;12218220;19;20010;-81
2022/06/25 15:20:12;;;;;;;2.65;1.20;;;;;;;39.01;20.27;99302.25;12220632;19;20103;-81
2022/06/25 15:24:14;;;;;;;2.83;1.30;;;;;;;40.79;19.08;99291.91;12193074;19;20082;-82
2022/06/25 15:28:16;;;;;;;3.22;1.10;;;;;;;39.82;19.26;99296.03;12221331;19;20086;-81
2022/06/25 15:32:19;;;;;;;1.13;0.93;;;;;;;38.01;20.57;99277.75;12216342;19;20021;-81
2022/06/25 15:36:21;;;;;;;3.75;1.10;;;;;;;36.54;21.66;99287.97;12182953;19;20029;-81
2022/06/25 15:40:22;;;;;;;1.85;1.17;;;;;;;35.03;23.10;99278.81;12212226;19;20070;-81
2022/06/25 15:44:26;;;;;;;2.60;1.20;;;;;;;33.64;25.23;99283.00;12213423;19;20002;-81
2022/06/25 15:48:28;;;;;;;2.95;1.05;;;;;;;32.92;25.49;99277.66;12189472;19;20002;-81
2022/06/25 15:52:30;;;;;;;1.48;1.00;;;;;;;32.26;25.67;99280.28;12213001;19;20227;-81
2022/06/25 15:56:33;;;;;;;1.52;0.95;;;;;;;31.61;26.75;99273.75;12209853;19;20018;-80
2022/06/25 16:00:37;;;;;;;2.47;0.90;;;;;;;31.10;27.64;99267.91;12182499;19;20429;-81
2022/06/25 16:04:39;;;;;;;0.70;0.70;;;;;;;30.88;27.08;99263.38;12212867;19;20062;-81
2022/06/25 16:08:41;;;;;;;2.65;1.10;;;;;;;30.78;26.89;99252.72;12228175;19;20030;-81
2022/06/25 16:12:42;;;;;;;2.38;1.38;;;;;;;30.44;28.65;99258.66;12245898;19;20010;-81
2022/06/25 16:16:48;;;;;;;0.88;0.60;;;;;;;30.40;28.00;99267.19;12210999;19;20011;-82
2022/06/25 16:20:50;;;;;;;1.40;0.90;;;;;;;30.31;28.18;99257.34;12198509;19;20014;-81
2022/06/25 16:24:51;;;;;;;2.95;0.82;;;;;;;30.18;28.39;99269.03;12221047;19;20087;-81
2022/06/25 16:28:53;;;;;;;1.77;1.05;;;;;;;29.93;28.38;99266.00;12216913;19;20066;-83
2022/06/25 16:32:55;;;;;;;1.90;0.90;;;;;;;29.76;29.03;99258.16;12189452;19;20011;-80
2022/06/25 16:36:57;;;;;;;2.03;0.80;;;;;;;29.56;29.26;99262.41;12208470;19;20078;-81
2022/06/25 16:40:59;;;;;;;3.78;0.75;;;;;;;29.42;30.01;99254.56;12217675;19;20011;-81
2022/06/25 16:45:01;;;;;;;1.67;0.90;;;;;;;29.49;29.99;99244.09;12181016;19;20015;-81
2022/06/25 16:49:06;;;;;;;2.83;1.20;;;;;;;29.38;30.73;99248.03;12210892;19;20029;-82
2022/06/25 16:53:08;;;;;;;2.28;0.98;;;;;;;29.36;30.21;99248.44;12210129;19;20028;-81
2022/06/25 16:57:09;;;;;;;2.97;1.05;;;;;;;29.18;31.68;99242.59;12187013;19;20526;-81
2022/06/25 17:01:11;;;;;;;1.35;1.13;;;;;;;29.08;31.23;99241.25;12206385;19;20070;-81
2022/06/25 17:05:13;;;;;;;2.03;1.20;;;;;;;29.03;31.09;99241.63;12213277;19;20090;-81
2022/06/25 17:09:15;;;;;;;2.08;1.15;;;;;;;29.02;31.70;99244.81;12186081;19;20007;-80
2022/06/25 17:13:17;;;;;;;;;;;;;;;29.06;32.30;99248.50;12212351;19;20094;-81
2022/06/25 17:17:25;;;;;;;1.83;1.10;;;;;;;29.16;31.95;99230.00;12209616;19;19907;-81
2022/06/25 17:21:29;;;;;;;2.40;1.30;;;;;;;29.19;32.05;99229.22;12190134;19;20007;-81
2022/06/25 17:25:30;;;;;;;1.48;1.05;;;;;;;29.10;32.34;99225.88;12202843;19;20021;-81
2022/06/25 17:29:34;;;;;;;1.38;1.05;;;;;;;28.92;32.95;99226.47;12200406;19;20500;-81
2022/06/25 17:33:36;;;;;;;4.22;1.00;;;;;;;28.85;32.60;99220.69;12179568;19;20011;-81
2022/06/25 17:37:39;;;;;;;1.70;1.20;;;;;;;28.94;32.88;99214.72;12206977;19;20013;-81
2022/06/25 17:41:40;;;;;;;1.27;1.00;;;;;;;28.87;33.00;99215.44;12196380;19;20002;-82
2022/06/25 17:45:42;;;;;;;1.57;1.00;;;;;;;28.68;32.78;99216.47;12179617;19;20119;-80
2022/06/25 17:49:43;;;;;;;1.77;0.90;;;;;;;28.45;33.33;99230.72;12205326;19;20263;-81
2022/06/25 17:53:46;;;;;;;2.60;1.33;;;;;;;28.23;33.86;99231.59;12180935;19;20263;-80
2022/06/25 17:57:48;;;;;;;1.83;1.00;;;;;;;28.09;33.64;99240.72;12198836;19;20032;-81
2022/06/25 18:01:50;;;;;;;1.60;1.13;;;;;;;27.97;34.93;99238.09;12201896;19;20503;-81
2022/06/25 18:05:52;;;;;;;2.38;0.98;;;;;;;27.84;35.50;99240.31;12169755;19;20467;-81
2022/06/25 18:09:54;;;;;;;1.92;1.05;;;;;;;27.70;36.04;99238.84;12196639;19;20018;-81
2022/06/25 18:13:58;;;;;;;3.60;1.10;;;;;;;27.58;37.13;99244.72;12193729;19;20457;-80
2022/06/25 18:17:59;;;;;;;3.33;1.17;;;;;;;27.42;37.87;99242.00;12175936;19;20272;-80
2022/06/25 18:22:01;;;;;;;2.23;1.30;;;;;;;27.30;38.12;99247.84;12201657;19;20055;-81
2022/06/25 18:26:03;;;;;;;3.00;1.10;;;;;;;27.14;39.48;99250.75;12198915;19;20737;-81
2022/06/25 18:30:05;;;;;;;1.33;1.10;;;;;;;26.97;40.05;99248.41;12184507;19;20088;-81
2022/06/25 18:34:07;;;;;;;3.90;1.25;;;;;;;26.81;41.37;99246.47;12203694;19;20003;-81
2022/06/25 18:38:09;;;;;;;4.83;1.20;;;;;;;26.64;42.13;99243.28;12193131;19;20019;-82
2022/06/25 18:42:11;;;;;;;3.10;1.30;;;;;;;26.46;43.05;99251.34;12176755;19;20299;-82
2022/06/25 18:46:12;;;;;;;3.00;1.33;;;;;;;26.24;43.79;99245.22;12189127;19;20472;-81
2022/06/25 18:50:14;;;;;;;1.47;1.10;;;;;;;25.99;45.04;99241.81;12202182;19;20010;-82
2022/06/25 18:54:16;;;;;;;4.43;1.20;;;;;;;25.81;46.19;99255.47;12178304;19;21049;-81
2022/06/25 18:58:17;;;;;;;2.87;1.30;;;;;;;25.64;46.65;99253.00;12204002;19;20014;-81
2022/06/25 19:02:19;;;;;;;1.83;1.13;;;;;;;25.46;47.55;99241.28;12204252;19;20372;-80
2022/06/25 19:06:21;;;;;;;2.87;1.30;;;;;;;25.23;48.20;99241.09;12176809;19;20082;-82
2022/06/25 19:10:23;;;;;;;2.35;1.30;;;;;;;25.00;49.31;99250.09;12199710;19;20011;-81
2022/06/25 19:14:24;;;;;;;3.63;1.43;;;;;;;24.81;49.87;99258.44;12194655;19;20069;-82
2022/06/25 19:18:26;;;;;;;1.63;1.33;;;;;;;24.58;50.95;99263.78;12166945;19;20482;-81
2022/06/25 19:22:28;;;;;;;4.03;1.33;;;;;;;24.34;51.52;99265.47;12188079;19;20513;-81
2022/06/25 19:26:30;;;;;;;4.22;1.42;;;;;;;24.19;52.25;99276.66;12201432;19;20017;-81
2022/06/25 19:30:31;;;;;;;3.53;1.30;;;;;;;24.04;52.47;99281.00;12179278;19;20007;-81
2022/06/25 19:34:34;;;;;;;1.50;1.30;;;;;;;23.95;52.61;99288.75;12204476;19;20010;-80
2022/06/25 19:38:35;;;;;;;2.38;1.70;;;;;;;23.84;53.28;99291.19;12210934;19;20030;-82
2022/06/25 19:42:39;;;;;;;2.28;1.40;;;;;;;23.72;53.63;99297.63;12185869;19;20006;-81
2022/06/25 19:46:40;;;;;;;3.97;1.55;;;;;;;23.63;53.96;99303.31;12209805;19;20011;-81
2022/06/25 19:50:42;;;;;;;3.20;1.63;;;;;;;23.58;53.92;99311.16;12227793;19;20010;-80